createdAt,value
2023-04-10T00:01:35.891Z,8.25
2023-04-10T00:04:06.122Z,8.73
2023-04-10T00:06:34.235Z,8.32
2023-04-10T00:09:02.374Z,8.98
2023-04-10T00:11:30.655Z,8.98
2023-04-10T00:13:58.329Z,8.43
2023-04-10T00:16:26.440Z,9.25
2023-04-10T00:18:54.132Z,9.60
2023-04-10T00:21:23.167Z,9.20
2023-04-10T00:23:51.139Z,8.98
2023-04-10T00:26:20.836Z,8.57
2023-04-10T00:31:16.333Z,8.50
2023-04-10T00:33:43.998Z,7.97
2023-04-10T00:36:12.037Z,8.45
2023-04-10T00:38:41.420Z,8.57
2023-04-10T00:41:09.110Z,8.13
2023-04-10T00:43:37.072Z,8.38
2023-04-10T00:46:06.961Z,7.90
2023-04-10T00:48:35.267Z,7.88
2023-04-10T00:51:03.626Z,7.93
2023-04-10T00:53:31.786Z,7.80
2023-04-10T00:56:02.753Z,7.25
2023-04-10T00:58:30.936Z,7.93
2023-04-10T01:00:58.673Z,7.13
2023-04-10T01:03:26.679Z,7.25
2023-04-10T01:06:07.194Z,7.97
2023-04-10T01:08:45.287Z,8.02
2023-04-10T01:11:20.013Z,7.88
2023-04-10T01:13:53.533Z,7.20
2023-04-10T01:16:28.086Z,7.22
2023-04-10T01:19:02.361Z,7.15
2023-04-10T01:21:32.938Z,6.95
2023-04-10T01:24:32.231Z,7.22
2023-04-10T01:27:13.825Z,6.93
2023-04-10T01:29:47.189Z,6.85
2023-04-10T01:32:19.199Z,6.88
2023-04-10T01:34:50.511Z,7.00
2023-04-10T01:37:22.206Z,6.53
2023-04-10T01:39:55.421Z,7.10
2023-04-10T01:42:24.799Z,6.80
2023-04-10T01:44:55.773Z,6.53
2023-04-10T01:47:25.626Z,6.80
2023-04-10T01:49:55.829Z,6.78
2023-04-10T01:52:24.684Z,7.00
2023-04-10T01:54:54.558Z,6.72
2023-04-10T01:57:22.709Z,6.82
2023-04-10T01:59:50.831Z,6.50
2023-04-10T02:02:20.331Z,6.53
2023-04-10T02:04:51.560Z,6.80
2023-04-10T02:07:26.450Z,6.75
2023-04-10T02:09:59.957Z,6.88
2023-04-10T02:12:32.090Z,6.53
2023-04-10T02:15:02.814Z,6.32
2023-04-10T02:17:33.271Z,6.65
2023-04-10T02:20:01.664Z,6.28
2023-04-10T02:22:30.001Z,6.40
2023-04-10T02:24:59.033Z,6.68
2023-04-10T02:27:31.219Z,6.03
2023-04-10T02:30:00.737Z,6.57
2023-04-10T02:32:28.495Z,6.80
2023-04-10T02:34:57.878Z,5.97
2023-04-10T02:37:26.281Z,6.40
2023-04-10T02:39:54.745Z,6.03
2023-04-10T02:42:22.588Z,6.25
2023-04-10T02:44:50.723Z,6.15
2023-04-10T02:47:18.821Z,5.90
2023-04-10T02:49:48.210Z,6.55
2023-04-10T02:52:18.215Z,6.03
2023-04-10T02:54:46.331Z,6.57
2023-04-10T02:57:14.036Z,6.25
2023-04-10T02:59:42.444Z,5.90
2023-04-10T03:02:10.488Z,6.47
2023-04-10T03:04:38.393Z,5.70
2023-04-10T03:07:06.370Z,5.47
2023-04-10T03:09:35.526Z,5.45
2023-04-10T03:12:03.350Z,6.18
2023-04-10T03:14:31.419Z,5.75
2023-04-10T03:16:59.091Z,5.80
2023-04-10T03:19:28.069Z,6.13
2023-04-10T03:21:56.151Z,5.85
2023-04-10T03:24:23.885Z,6.38
2023-04-10T03:26:52.981Z,6.25
2023-04-10T03:29:21.102Z,6.00
2023-04-10T03:31:48.803Z,6.10
2023-04-10T03:34:16.860Z,5.57
2023-04-10T03:36:44.917Z,5.72
2023-04-10T03:39:12.584Z,5.70
2023-04-10T03:41:40.309Z,6.07
2023-04-10T03:44:09.711Z,6.07
2023-04-10T03:46:37.423Z,5.65
2023-04-10T03:49:05.286Z,5.53
2023-04-10T03:51:33.316Z,6.20
2023-04-10T03:54:01.213Z,6.28
2023-04-10T03:56:29.250Z,5.50
2023-04-10T03:58:57.092Z,6.07
2023-04-10T04:01:26.213Z,5.95
2023-04-10T04:03:54.715Z,5.15
2023-04-10T04:06:22.685Z,5.70
2023-04-10T04:08:50.393Z,5.70
2023-04-10T04:11:18.680Z,5.97
2023-04-10T04:13:46.367Z,5.70
2023-04-10T04:16:14.083Z,5.95
2023-04-10T04:18:43.820Z,5.97
2023-04-10T04:21:11.574Z,6.22
2023-04-10T04:23:39.378Z,5.97
2023-04-10T04:26:07.823Z,6.00
2023-04-10T04:28:35.504Z,5.85
2023-04-10T04:31:03.285Z,6.15
2023-04-10T04:33:31.303Z,6.25
2023-04-10T04:36:00.363Z,6.25
2023-04-10T04:38:28.055Z,6.22
2023-04-10T04:40:56.014Z,6.40
2023-04-10T04:43:23.688Z,6.03
2023-04-10T04:45:51.420Z,6.28
2023-04-10T04:48:19.480Z,6.10
2023-04-10T04:50:47.160Z,6.13
2023-04-10T04:53:16.181Z,6.65
2023-04-10T04:55:44.070Z,5.97
2023-04-10T04:58:11.758Z,6.07
2023-04-10T05:00:39.437Z,6.20
2023-04-10T05:03:07.437Z,6.13
2023-04-10T05:05:35.598Z,5.60
2023-04-10T05:08:03.290Z,6.22
2023-04-10T05:10:32.749Z,6.43
2023-04-10T05:13:00.443Z,7.05
2023-04-10T05:15:28.691Z,6.32
2023-04-10T05:17:56.890Z,6.20
2023-04-10T05:20:24.703Z,6.07
2023-04-10T05:22:53.043Z,6.22
2023-04-10T05:25:21.259Z,6.40
2023-04-10T05:27:50.643Z,6.28
2023-04-10T05:30:18.768Z,6.30
2023-04-10T05:32:47.197Z,6.53
2023-04-10T05:35:15.009Z,6.50
2023-04-10T05:37:42.948Z,6.43
2023-04-10T05:40:11.571Z,6.45
2023-04-10T05:42:39.233Z,6.13
2023-04-10T05:45:09.190Z,6.20
2023-04-10T05:47:37.339Z,6.53
2023-04-10T05:50:05.580Z,6.65
2023-04-10T05:52:33.260Z,6.03
2023-04-10T05:55:01.227Z,6.43
2023-04-10T05:57:30.401Z,6.20
2023-04-10T05:59:58.110Z,6.13
2023-04-10T06:02:27.861Z,6.00
2023-04-10T06:04:56.014Z,6.38
2023-04-10T06:07:23.760Z,5.93
2023-04-10T06:09:51.544Z,6.07
2023-04-10T06:12:19.224Z,6.32
2023-04-10T06:14:47.036Z,5.72
2023-04-10T06:17:15.142Z,6.00
2023-04-10T06:19:44.195Z,6.45
2023-04-10T06:22:11.910Z,6.05
2023-04-10T06:24:39.855Z,6.07
2023-04-10T06:27:07.559Z,5.95
2023-04-10T06:29:35.230Z,6.15
2023-04-10T06:32:03.247Z,6.43
2023-04-10T06:34:31.032Z,5.78
2023-04-10T06:37:00.451Z,5.45
2023-04-10T06:39:28.400Z,5.47
2023-04-10T06:41:56.126Z,5.75
2023-04-10T06:44:23.808Z,5.55
2023-04-10T06:46:51.853Z,6.07
2023-04-10T06:49:19.555Z,4.95
2023-04-10T06:51:48.224Z,5.82
2023-04-10T06:54:17.596Z,6.00
2023-04-10T06:56:45.316Z,5.43
2023-04-10T06:59:12.976Z,5.10
2023-04-10T07:01:41.125Z,5.10
2023-04-10T07:04:08.986Z,5.68
2023-04-10T07:06:36.734Z,5.40
2023-04-10T07:09:05.005Z,5.43
2023-04-10T07:11:34.098Z,5.30
2023-04-10T07:14:01.761Z,6.20
2023-04-10T07:16:30.226Z,5.40
2023-04-10T07:18:57.943Z,5.15
2023-04-10T07:21:27.167Z,5.40
2023-04-10T07:23:55.478Z,5.13
2023-04-10T07:26:23.136Z,5.28
2023-04-10T07:28:52.374Z,5.38
2023-04-10T07:31:20.688Z,5.93
2023-04-10T07:33:48.520Z,5.22
2023-04-10T07:36:16.588Z,5.45
2023-04-10T07:38:45.083Z,4.90
2023-04-10T07:41:13.078Z,5.25
2023-04-10T07:43:41.492Z,5.10
2023-04-10T07:46:11.736Z,4.65
2023-04-10T07:48:39.405Z,5.07
2023-04-10T07:51:09.296Z,4.90
2023-04-10T07:53:37.653Z,5.05
2023-04-10T07:56:06.194Z,5.20
2023-04-10T07:58:34.127Z,4.60
2023-04-10T08:01:02.125Z,4.55
2023-04-10T08:03:31.461Z,5.05
2023-04-10T08:05:59.333Z,5.28
2023-04-10T08:08:27.520Z,5.30
2023-04-10T08:10:55.363Z,4.75
2023-04-10T08:13:23.071Z,5.00
2023-04-10T08:15:51.748Z,5.15
2023-04-10T08:18:19.393Z,5.47
2023-04-10T08:20:48.421Z,5.00
2023-04-10T08:23:20.375Z,5.53
2023-04-10T08:25:48.810Z,5.53
2023-04-10T08:28:16.698Z,5.05
2023-04-10T08:30:44.401Z,5.05
2023-04-10T08:33:12.095Z,5.28
2023-04-10T08:35:39.807Z,5.05
2023-04-10T08:38:14.045Z,4.65
2023-04-10T08:40:45.032Z,5.10
2023-04-10T08:43:12.767Z,5.07
2023-04-10T08:45:41.707Z,5.55
2023-04-10T08:48:12.304Z,4.97
2023-04-10T08:50:43.042Z,5.00
2023-04-10T08:53:14.337Z,4.55
2023-04-10T08:55:43.024Z,5.05
2023-04-10T08:58:13.550Z,5.27
2023-04-10T09:00:42.148Z,4.90
2023-04-10T09:03:11.896Z,4.75
2023-04-10T09:05:40.064Z,5.15
2023-04-10T09:08:09.671Z,4.90
2023-04-10T09:16:00.909Z,4.22
2023-04-10T09:18:47.044Z,5.07
2023-04-10T09:21:17.966Z,5.20
2023-04-10T09:23:48.866Z,4.97
2023-04-10T09:26:29.275Z,4.82
2023-04-10T09:29:02.124Z,4.90
2023-04-10T09:31:36.105Z,5.05
2023-04-10T09:34:13.691Z,4.70
2023-04-10T09:36:43.575Z,5.07
2023-04-10T09:39:13.479Z,4.63
2023-04-10T09:41:55.654Z,4.78
2023-04-10T09:44:31.614Z,4.90
2023-04-10T09:47:00.437Z,4.50
2023-04-10T09:49:28.667Z,4.53
2023-04-10T09:51:56.788Z,4.65
2023-04-10T09:54:38.409Z,4.28
2023-04-10T09:57:08.404Z,4.72
2023-04-10T09:59:42.975Z,4.60
2023-04-10T10:02:12.462Z,4.68
2023-04-10T10:07:10.183Z,4.18
2023-04-10T10:09:38.620Z,4.10
2023-04-10T10:12:10.932Z,4.50
2023-04-10T10:14:44.899Z,4.40
2023-04-10T10:17:15.908Z,4.60
2023-04-10T10:19:51.442Z,4.07
2023-04-10T10:22:20.932Z,4.10
2023-04-10T10:24:49.571Z,4.32
2023-04-10T10:27:21.380Z,4.30
2023-04-10T10:29:50.913Z,4.22
2023-04-10T10:34:47.512Z,3.90
2023-04-10T10:37:16.242Z,4.20
2023-04-10T10:39:52.115Z,3.77
2023-04-10T10:42:32.156Z,3.97
2023-04-10T10:45:11.990Z,3.80
2023-04-10T10:47:47.343Z,3.78
2023-04-10T10:50:16.018Z,3.78
2023-04-10T10:52:49.768Z,3.78
2023-04-10T10:55:35.613Z,3.58
2023-04-10T10:58:06.857Z,3.75
2023-04-10T11:01:09.188Z,3.47
2023-04-10T11:03:37.988Z,3.55
2023-04-10T11:06:09.167Z,3.22
2023-04-10T11:08:42.682Z,3.90
2023-04-10T11:11:13.651Z,3.63
2023-04-10T11:14:04.199Z,3.60
2023-04-10T11:16:48.902Z,3.72
2023-04-10T11:19:22.654Z,3.63
2023-04-10T11:22:09.525Z,3.30
2023-04-10T11:24:58.742Z,3.47
2023-04-10T11:27:49.256Z,3.22
2023-04-10T11:30:34.872Z,3.42
2023-04-10T11:33:04.501Z,3.20
2023-04-10T11:35:33.923Z,3.08
2023-04-10T11:38:13.480Z,3.25
2023-04-10T11:41:11.477Z,3.65
2023-04-10T11:43:40.396Z,3.00
2023-04-10T11:46:10.272Z,2.85
2023-04-10T11:48:38.694Z,3.10
2023-04-10T11:51:11.350Z,2.97
2023-04-10T11:53:39.868Z,2.90
2023-04-10T11:56:17.291Z,2.80
2023-04-10T11:58:45.459Z,3.13
2023-04-10T12:01:15.669Z,3.20
2023-04-10T12:03:45.519Z,2.92
2023-04-10T12:06:15.659Z,3.20
2023-04-10T12:08:46.938Z,3.05
2023-04-10T12:11:16.100Z,3.00
2023-04-10T12:13:44.218Z,2.88
2023-04-10T12:16:15.081Z,3.10
2023-04-10T12:18:43.693Z,2.80
2023-04-10T12:21:11.926Z,2.50
2023-04-10T12:23:41.138Z,2.55
2023-04-10T12:26:14.220Z,2.53
2023-04-10T12:28:53.600Z,2.70
2023-04-10T12:33:59.208Z,2.50
2023-04-10T12:36:29.872Z,2.88
2023-04-10T12:38:58.258Z,2.30
2023-04-10T12:41:29.073Z,2.50
2023-04-10T12:44:08.683Z,2.40
2023-04-10T12:46:39.020Z,2.55
2023-04-10T12:49:11.523Z,2.70
2023-04-10T12:51:48.256Z,2.33
2023-04-10T12:54:30.024Z,2.47
2023-04-10T12:56:58.898Z,2.40
2023-04-10T12:59:28.063Z,2.30
2023-04-10T13:01:57.845Z,2.20
2023-04-10T13:04:27.121Z,2.60
2023-04-10T13:06:55.190Z,2.28
2023-04-10T13:09:23.452Z,2.67
2023-04-10T13:11:53.410Z,2.90
2023-04-10T13:14:21.698Z,2.58
2023-04-10T13:16:49.849Z,2.70
2023-04-10T13:19:19.620Z,2.67
2023-04-10T13:21:47.666Z,2.53
2023-04-10T13:24:16.731Z,2.90
2023-04-10T13:26:45.592Z,2.90
2023-04-10T13:29:13.521Z,2.88
2023-04-10T13:31:41.529Z,2.88
2023-04-10T13:34:09.756Z,2.60
2023-04-10T13:36:39.344Z,3.10
2023-04-10T13:39:07.323Z,2.90
2023-04-10T13:41:36.112Z,2.70
2023-04-10T13:44:04.192Z,3.20
2023-04-10T13:46:32.174Z,2.70
2023-04-10T13:49:00.241Z,2.80
2023-04-10T13:51:29.808Z,2.83
2023-04-10T13:53:59.129Z,2.70
2023-04-10T13:56:27.671Z,3.00
2023-04-10T13:58:56.005Z,2.55
2023-04-10T14:01:24.459Z,3.00
2023-04-10T14:03:53.208Z,3.20
2023-04-10T14:06:21.229Z,3.00
2023-04-10T14:08:49.261Z,2.65
2023-04-10T14:11:18.859Z,2.70
2023-04-10T14:16:14.536Z,2.83
2023-04-10T14:18:43.029Z,2.70
2023-04-10T14:21:11.533Z,3.03
2023-04-10T14:23:39.513Z,2.60
2023-04-10T14:26:08.393Z,2.92
2023-04-10T14:28:37.753Z,2.80
2023-04-10T14:31:06.330Z,2.90
2023-04-10T14:33:35.575Z,2.85
2023-04-10T14:36:03.643Z,3.13
2023-04-10T14:38:31.655Z,2.97
2023-04-10T14:41:00.113Z,2.97
2023-04-10T14:43:27.951Z,2.67
2023-04-10T14:45:57.277Z,3.08
2023-04-10T14:48:25.841Z,2.95
2023-04-10T14:50:54.970Z,2.60
2023-04-10T14:53:23.164Z,2.40
2023-04-10T14:55:51.761Z,2.45
2023-04-10T14:58:19.756Z,1.95
2023-04-10T15:00:48.131Z,2.08
2023-04-10T15:03:18.044Z,2.20
2023-04-10T15:05:46.368Z,2.53
2023-04-10T15:08:14.239Z,2.40
2023-04-10T15:10:42.731Z,2.60
2023-04-10T15:13:10.735Z,2.63
2023-04-10T15:15:38.741Z,2.63
2023-04-10T15:18:07.310Z,2.38
2023-04-10T15:20:36.626Z,2.30
2023-04-10T15:23:04.547Z,3.20
2023-04-10T15:25:34.326Z,2.63
2023-04-10T15:28:02.550Z,2.60
2023-04-10T15:30:31.308Z,2.70
2023-04-10T15:32:59.747Z,2.50
2023-04-10T15:35:28.742Z,2.53
2023-04-10T15:37:58.099Z,2.97
2023-04-10T15:40:26.729Z,2.85
2023-04-10T15:42:54.606Z,3.37
2023-04-10T15:45:22.750Z,3.80
2023-04-10T15:47:51.510Z,3.72
2023-04-10T15:50:19.541Z,3.90
2023-04-10T15:52:47.366Z,3.80
2023-04-10T15:55:17.891Z,4.20
2023-04-10T15:57:45.836Z,4.43
2023-04-10T16:00:14.924Z,3.78
2023-04-10T16:02:43.521Z,4.25
2023-04-10T16:05:11.571Z,4.22
2023-04-10T16:07:40.707Z,4.40
2023-04-10T16:10:10.876Z,4.97
2023-04-10T16:12:40.114Z,5.22
2023-04-10T16:15:09.134Z,5.05
2023-04-10T16:17:37.627Z,6.00
2023-04-10T16:20:06.726Z,5.53
2023-04-10T16:22:34.797Z,5.35
2023-04-10T16:27:32.295Z,5.30
2023-04-10T16:30:01.746Z,5.53
2023-04-10T16:32:31.721Z,5.28
2023-04-10T16:35:00.162Z,5.32
2023-04-10T16:37:28.089Z,5.28
2023-04-10T16:39:56.919Z,5.20
2023-04-10T16:42:24.770Z,5.28
2023-04-10T16:44:53.384Z,4.60
2023-04-10T16:47:23.067Z,4.18
2023-04-10T16:49:52.498Z,3.47
2023-04-10T16:52:20.483Z,4.10
2023-04-10T16:54:49.039Z,3.42
2023-04-10T16:57:16.905Z,3.63
2023-04-10T16:59:44.984Z,3.80
2023-04-10T17:02:13.665Z,3.40
2023-04-10T17:04:43.111Z,3.40
2023-04-10T17:07:11.085Z,2.67
2023-04-10T17:09:39.600Z,2.47
2023-04-10T17:12:07.684Z,2.60
2023-04-10T17:14:35.735Z,2.80
2023-04-10T17:17:04.710Z,2.58
2023-04-10T17:19:33.992Z,2.70
2023-04-10T17:22:03.594Z,2.40
2023-04-10T17:24:32.060Z,2.38
2023-04-10T17:27:02.009Z,2.38
2023-04-10T17:29:30.074Z,2.00
2023-04-10T17:31:58.662Z,2.03
2023-04-10T17:34:26.727Z,1.73
2023-04-10T17:36:54.695Z,1.90
2023-04-10T17:39:25.055Z,1.83
2023-04-10T17:41:52.877Z,2.10
2023-04-10T17:44:21.007Z,1.92
2023-04-10T17:46:49.583Z,2.20
2023-04-10T17:49:17.627Z,2.33
2023-04-10T17:51:45.590Z,2.50
2023-04-10T17:54:14.063Z,2.92
2023-04-10T17:56:43.485Z,3.08
2023-04-10T17:59:11.720Z,3.08
2023-04-10T18:01:39.971Z,3.30
2023-04-10T18:04:08.103Z,3.40
2023-04-10T18:06:36.220Z,3.38
2023-04-10T18:09:04.682Z,3.40
2023-04-10T18:11:32.613Z,2.80
2023-04-10T18:14:01.931Z,3.15
2023-04-10T18:16:31.461Z,2.92
2023-04-10T18:18:59.399Z,3.30
2023-04-10T18:21:27.277Z,2.97
2023-04-10T18:23:55.776Z,3.67
2023-04-10T18:26:24.734Z,3.67
2023-04-10T18:28:53.152Z,2.97
2023-04-10T18:31:23.342Z,3.27
2023-04-10T18:36:24.729Z,3.60
2023-04-10T18:38:53.124Z,3.33
2023-04-10T18:41:21.254Z,3.60
2023-04-10T18:44:01.669Z,3.95
2023-04-10T18:46:34.328Z,4.50
2023-04-10T18:51:31.391Z,4.75
2023-04-10T18:53:59.829Z,5.43
2023-04-10T18:56:28.176Z,5.85
2023-04-10T18:58:56.226Z,6.22
2023-04-10T19:01:24.307Z,6.03
2023-04-10T19:03:55.519Z,5.80
2023-04-10T19:06:24.809Z,5.72
2023-04-10T19:08:52.881Z,5.80
2023-04-10T19:11:21.884Z,5.30
2023-04-10T19:13:49.907Z,4.68
2023-04-10T19:16:19.509Z,4.53
2023-04-10T19:18:48.508Z,4.20
2023-04-10T19:21:17.866Z,3.80
2023-04-10T19:23:46.450Z,3.83
2023-04-10T19:26:14.910Z,3.25
2023-04-10T19:28:42.793Z,3.55
2023-04-10T19:31:10.782Z,3.30
2023-04-10T19:33:40.217Z,3.80
2023-04-10T19:36:08.972Z,3.80
2023-04-10T19:38:41.296Z,3.40
2023-04-10T19:41:15.214Z,3.65
2023-04-10T19:43:44.186Z,3.53
2023-04-10T19:46:18.647Z,3.13
2023-04-10T19:48:47.455Z,3.30
2023-04-10T19:51:15.311Z,3.17
2023-04-10T19:53:45.054Z,3.25
2023-04-10T19:56:13.756Z,3.25
2023-04-10T19:58:43.858Z,3.33
2023-04-10T20:01:13.816Z,3.13
2023-04-10T20:03:42.055Z,3.05
2023-04-10T20:06:10.522Z,3.10
2023-04-10T20:08:38.934Z,2.70
2023-04-10T20:11:09.531Z,3.20
2023-04-10T20:13:38.594Z,3.00
2023-04-10T20:16:07.786Z,3.22
2023-04-10T20:18:36.071Z,2.83
2023-04-10T20:21:04.703Z,2.95
2023-04-10T20:23:32.949Z,2.90
2023-04-10T20:26:00.881Z,3.20
2023-04-10T20:28:30.119Z,3.05
2023-04-10T20:30:58.285Z,3.50
2023-04-10T20:33:26.106Z,4.28
2023-04-10T20:35:54.215Z,3.15
2023-04-10T20:38:22.624Z,3.55
2023-04-10T20:40:50.765Z,3.40
2023-04-10T20:43:18.845Z,3.80
2023-04-10T20:45:48.345Z,3.75
2023-04-10T20:48:16.262Z,3.92
2023-04-10T20:50:49.268Z,3.53
2023-04-10T20:53:17.053Z,3.60
2023-04-10T20:55:44.972Z,3.65
2023-04-10T20:58:13.215Z,4.22
2023-04-10T21:00:41.294Z,3.80
2023-04-10T21:03:10.850Z,3.67
2023-04-10T21:08:08.338Z,3.95
2023-04-10T21:10:40.300Z,3.85
2023-04-10T21:13:08.156Z,3.80
2023-04-10T21:15:36.006Z,3.88
2023-04-10T21:18:04.298Z,3.58
2023-04-10T21:20:34.973Z,3.78
2023-04-10T21:23:03.412Z,3.83
2023-04-10T21:25:34.443Z,3.13
2023-04-10T21:28:02.811Z,3.47
2023-04-10T21:30:30.921Z,3.40
2023-04-10T21:32:59.465Z,3.25
2023-04-10T21:35:27.880Z,2.90
2023-04-10T21:38:02.118Z,2.78
2023-04-10T21:40:34.286Z,2.92
2023-04-10T21:43:03.272Z,3.00
2023-04-10T21:45:31.542Z,2.43
2023-04-10T21:48:00.818Z,2.70
2023-04-10T21:50:29.576Z,3.05
2023-04-10T21:53:00.170Z,2.80
2023-04-10T21:55:28.199Z,3.45
2023-04-10T21:57:56.796Z,2.60
2023-04-10T22:00:24.781Z,3.10
2023-04-10T22:02:53.070Z,2.30
2023-04-10T22:05:21.872Z,2.80
2023-04-10T22:07:49.863Z,2.80
2023-04-10T22:10:19.308Z,3.50
2023-04-10T22:12:48.975Z,2.83
2023-04-10T22:15:17.586Z,3.00
2023-04-10T22:17:45.944Z,3.45
2023-04-10T22:20:14.860Z,3.38
2023-04-10T22:22:42.910Z,3.28
2023-04-10T22:25:11.060Z,3.15
2023-04-10T22:27:41.146Z,3.03
2023-04-10T22:30:10.297Z,2.47
2023-04-10T22:32:38.514Z,2.80
2023-04-10T22:35:08.333Z,3.40
2023-04-10T22:37:36.397Z,3.55
2023-04-10T22:40:04.519Z,3.33
2023-04-10T22:42:33.172Z,3.08
2023-04-10T22:45:02.862Z,3.30
2023-04-10T22:47:30.781Z,3.03
2023-04-10T22:49:59.179Z,3.38
2023-04-10T22:52:27.088Z,3.55
2023-04-10T22:54:55.127Z,3.70
2023-04-10T22:57:23.945Z,3.58
2023-04-10T22:59:51.935Z,3.65
2023-04-10T23:02:21.198Z,3.92
2023-04-10T23:04:49.649Z,3.95
2023-04-10T23:07:17.640Z,3.58
2023-04-10T23:09:45.293Z,4.10
2023-04-10T23:12:13.670Z,3.67
2023-04-10T23:14:41.361Z,3.78
2023-04-10T23:17:09.061Z,4.18
2023-04-10T23:19:39.024Z,4.07
2023-04-10T23:22:06.714Z,3.60
2023-04-10T23:24:34.424Z,4.00
2023-04-10T23:27:02.502Z,3.70
2023-04-10T23:29:30.168Z,4.53
2023-04-10T23:31:57.852Z,4.25
2023-04-10T23:34:26.999Z,3.80
2023-04-10T23:36:56.866Z,3.83
2023-04-10T23:39:24.700Z,4.63
2023-04-10T23:41:53.240Z,4.43
2023-04-10T23:44:20.997Z,3.95
2023-04-10T23:46:49.538Z,4.15
2023-04-10T23:49:17.865Z,3.88
2023-04-10T23:51:46.104Z,3.90
2023-04-10T23:54:15.372Z,3.90
2023-04-10T23:56:43.294Z,4.50
2023-04-10T23:59:10.991Z,4.18
